Charleston, SC

11:57 PM EST on January 22, 2017 (GMT -0500)
Downtown Charleston | | Change Station
Active Advisory: Small Craft Advisory

Elev 23 ft 32.79 °N, 79.95 °W | Updated 5 seconds ago

Partly Cloudy
Partly Cloudy
65.3 °F
Feels Like 65.3 °F
N
17.0
Wind Variable Wind from WNW
Gusts 22.4 mph

Today
High -- | Low -- °F
--% Chance of Precip.
Yesterday
High -- | Low -- °F
Precip. -- in
Pressure 29.30 in
Visibility 8.0 miles
Clouds Few 1000 ft
Dew Point 63 °F
Humidity 91%
Rainfall 1.74 in
Snow Depth Not available.
7:19 AM 5:43 PM
Waning Crescent, 21% visible
METAR KJZI 230435Z AUTO 22015G22KT 8SM FEW010 18/17 A2930 RMK AO2
Pressure 29.30 in
Visibility 8.0 miles
Clouds Few 1000 ft
Dew Point 63 °F
Humidity 91%
Rainfall 1.74 in
Snow Depth Not available.
7:19 AM 5:43 PM
Waning Crescent, 21% visible
METAR KJZI 230435Z AUTO 22015G22KT 8SM FEW010 18/17 A2930 RMK AO2

Get Your Daily Forecast Email!

Thanks for signing up!

Be on the lookout for a verification email in your inbox.

You'll start receiving the daily forecast at 8 AM.

×

10-Day Weather Forecast

Almanac

Astronomy

Jan. 22, 2017 Rise Set
Actual Time
Civil Twilight
Nautical Twilight
Astronomical Twilight
Moon
Length of Visible Light
Length of Day
Tomorrow will be .
, % of the Moon is Illuminated

Today's Extremes

State Highs State Lows

Community

WunderPhotos

Upload Photos

1,962,540 photos uploaded!

WunderBlog® & News

Nearby

Air Quality

  Air Quality AQ Index Pollutant
Not available.

Snow Depth

Station Depth Elevation

Earthquake Activity

City Distance Mag. Time & Date
Minimum magnitude displayed is 2.5.

Coastal Water Temperatures

Place Temperature

Stations

Nearby Weather Stations

Station Location Temp. Windchill Dew Point Humidity Wind Precip. Elev Updated Type
                   

Watches & Warnings

Small Craft Advisory
Issued: 2:30 PM EST Jan. 22, 2017 – National Weather Service

... Small Craft Advisory remains in effect until 1 am EST
Tuesday...

* impacts... wind and or wave conditions will be hazardous to
small craft.

Precautionary/preparedness actions...

During a Small Craft Advisory... inexperienced mariners...
especially those operating smaller vessels... should avoid
navigating in hazardous conditions.